sensor_id;sensor_type;location;lat;lon;timestamp;temperature;humidity
19878;DHT22;10101;52.204;9.910;2023-09-07T00:01:55;15.40;1.00
19878;DHT22;10101;52.204;9.910;2023-09-07T00:04:22;15.40;1.00
19878;DHT22;10101;52.204;9.910;2023-09-07T00:06:50;15.30;1.00
19878;DHT22;10101;52.204;9.910;2023-09-07T00:09:17;15.20;1.00
19878;DHT22;10101;52.204;9.910;2023-09-07T00:11:47;15.20;69.50
19878;DHT22;10101;52.204;9.910;2023-09-07T00:14:14;15.20;99.90
19878;DHT22;10101;52.204;9.910;2023-09-07T00:16:41;15.20;99.90
19878;DHT22;10101;52.204;9.910;2023-09-07T00:19:07;15.10;99.90
19878;DHT22;10101;52.204;9.910;2023-09-07T00:21:34;15.10;99.90
19878;DHT22;10101;52.204;9.910;2023-09-07T00:24:02;15.10;99.90
19878;DHT22;10101;52.204;9.910;2023-09-07T00:26:31;15.10;1.00
19878;DHT22;10101;52.204;9.910;2023-09-07T00:28:58;15.10;1.00
19878;DHT22;10101;52.204;9.910;2023-09-07T00:31:25;15.00;1.00
19878;DHT22;10101;52.204;9.910;2023-09-07T00:33:51;15.00;1.00
19878;DHT22;10101;52.204;9.910;2023-09-07T00:36:18;15.10;1.00
19878;DHT22;10101;52.204;9.910;2023-09-07T00:38:45;15.00;1.00
19878;DHT22;10101;52.204;9.910;2023-09-07T00:41:13;14.90;6.90
19878;DHT22;10101;52.204;9.910;2023-09-07T00:43:40;14.90;91.20
19878;DHT22;10101;52.204;9.910;2023-09-07T00:46:07;14.90;99.90
19878;DHT22;10101;52.204;9.910;2023-09-07T00:48:34;14.80;99.90
19878;DHT22;10101;52.204;9.910;2023-09-07T00:51:01;14.80;99.90
19878;DHT22;10101;52.204;9.910;2023-09-07T00:53:28;14.80;99.90
19878;DHT22;10101;52.204;9.910;2023-09-07T00:55:55;14.70;99.90
19878;DHT22;10101;52.204;9.910;2023-09-07T00:58:24;14.70;99.90
19878;DHT22;10101;52.204;9.910;2023-09-07T01:00:51;14.70;99.90
19878;DHT22;10101;52.204;9.910;2023-09-07T01:03:18;14.70;99.90
19878;DHT22;10101;52.204;9.910;2023-09-07T01:05:51;14.80;1.00
19878;DHT22;10101;52.204;9.910;2023-09-07T01:08:24;14.70;1.00
19878;DHT22;10101;52.204;9.910;2023-09-07T01:10:51;14.70;1.00
19878;DHT22;10101;52.204;9.910;2023-09-07T01:13:18;14.70;1.00
19878;DHT22;10101;52.204;9.910;2023-09-07T01:15:46;14.70;1.00
19878;DHT22;10101;52.204;9.910;2023-09-07T01:18:14;14.60;1.00
19878;DHT22;10101;52.204;9.910;2023-09-07T01:20:42;14.60;1.00
19878;DHT22;10101;52.204;9.910;2023-09-07T01:23:12;14.60;1.00
19878;DHT22;10101;52.204;9.910;2023-09-07T01:25:40;14.50;1.00
19878;DHT22;10101;52.204;9.910;2023-09-07T01:28:07;14.50;1.00
19878;DHT22;10101;52.204;9.910;2023-09-07T01:30:35;14.50;1.00
19878;DHT22;10101;52.204;9.910;2023-09-07T01:33:02;14.40;1.00
19878;DHT22;10101;52.204;9.910;2023-09-07T01:35:30;14.40;1.00
19878;DHT22;10101;52.204;9.910;2023-09-07T01:37:58;14.30;1.00
19878;DHT22;10101;52.204;9.910;2023-09-07T01:40:26;14.30;29.40
19878;DHT22;10101;52.204;9.910;2023-09-07T01:42:52;14.30;84.70
19878;DHT22;10101;52.204;9.910;2023-09-07T01:45:19;14.30;99.90
19878;DHT22;10101;52.204;9.910;2023-09-07T01:47:46;14.30;99.90
19878;DHT22;10101;52.204;9.910;2023-09-07T01:50:13;14.30;99.90
19878;DHT22;10101;52.204;9.910;2023-09-07T01:52:40;14.30;99.90
19878;DHT22;10101;52.204;9.910;2023-09-07T01:55:07;14.20;99.90
19878;DHT22;10101;52.204;9.910;2023-09-07T01:57:35;14.20;99.90
19878;DHT22;10101;52.204;9.910;2023-09-07T02:00:03;14.30;99.90
19878;DHT22;10101;52.204;9.910;2023-09-07T02:02:31;14.20;99.90
19878;DHT22;10101;52.204;9.910;2023-09-07T02:04:58;14.20;99.90
19878;DHT22;10101;52.204;9.910;2023-09-07T02:07:24;14.20;99.90
19878;DHT22;10101;52.204;9.910;2023-09-07T02:09:51;14.10;99.90
19878;DHT22;10101;52.204;9.910;2023-09-07T02:12:18;14.00;99.90
19878;DHT22;10101;52.204;9.910;2023-09-07T02:14:46;14.00;99.90
19878;DHT22;10101;52.204;9.910;2023-09-07T02:17:13;14.00;1.00
19878;DHT22;10101;52.204;9.910;2023-09-07T02:19:43;14.10;1.00
19878;DHT22;10101;52.204;9.910;2023-09-07T02:22:10;14.00;1.00
19878;DHT22;10101;52.204;9.910;2023-09-07T02:24:37;14.00;1.00
19878;DHT22;10101;52.204;9.910;2023-09-07T02:27:04;14.00;9.20
19878;DHT22;10101;52.204;9.910;2023-09-07T02:29:30;14.10;99.90
19878;DHT22;10101;52.204;9.910;2023-09-07T02:31:58;14.00;99.90
19878;DHT22;10101;52.204;9.910;2023-09-07T02:34:25;14.00;99.90
19878;DHT22;10101;52.204;9.910;2023-09-07T02:36:52;14.00;99.90
19878;DHT22;10101;52.204;9.910;2023-09-07T02:39:19;13.90;99.90
19878;DHT22;10101;52.204;9.910;2023-09-07T02:41:45;14.00;99.90
19878;DHT22;10101;52.204;9.910;2023-09-07T02:44:12;13.90;99.90
19878;DHT22;10101;52.204;9.910;2023-09-07T02:46:39;13.90;99.90
19878;DHT22;10101;52.204;9.910;2023-09-07T02:49:07;13.90;99.90
19878;DHT22;10101;52.204;9.910;2023-09-07T02:51:34;13.90;99.90
19878;DHT22;10101;52.204;9.910;2023-09-07T02:54:02;13.80;99.90
19878;DHT22;10101;52.204;9.910;2023-09-07T02:56:29;13.70;99.90
19878;DHT22;10101;52.204;9.910;2023-09-07T02:58:56;13.80;99.90
19878;DHT22;10101;52.204;9.910;2023-09-07T03:01:23;13.70;99.90
19878;DHT22;10101;52.204;9.910;2023-09-07T03:03:49;13.70;99.90
19878;DHT22;10101;52.204;9.910;2023-09-07T03:06:18;13.60;99.90
19878;DHT22;10101;52.204;9.910;2023-09-07T03:08:45;13.60;99.90
19878;DHT22;10101;52.204;9.910;2023-09-07T03:11:12;13.40;99.90
19878;DHT22;10101;52.204;9.910;2023-09-07T03:13:39;13.30;99.90
19878;DHT22;10101;52.204;9.910;2023-09-07T03:16:06;13.30;99.90
19878;DHT22;10101;52.204;9.910;2023-09-07T03:18:33;13.40;99.90
19878;DHT22;10101;52.204;9.910;2023-09-07T03:21:01;13.40;1.00
19878;DHT22;10101;52.204;9.910;2023-09-07T03:23:30;13.40;1.00
19878;DHT22;10101;52.204;9.910;2023-09-07T03:25:57;13.30;1.00
19878;DHT22;10101;52.204;9.910;2023-09-07T03:28:24;13.30;1.00
19878;DHT22;10101;52.204;9.910;2023-09-07T03:30:51;13.30;1.00
19878;DHT22;10101;52.204;9.910;2023-09-07T03:33:18;13.40;1.00
19878;DHT22;10101;52.204;9.910;2023-09-07T03:35:45;13.50;1.00
19878;DHT22;10101;52.204;9.910;2023-09-07T03:38:12;13.50;1.00
19878;DHT22;10101;52.204;9.910;2023-09-07T03:40:41;13.60;1.00
19878;DHT22;10101;52.204;9.910;2023-09-07T03:43:07;13.50;1.00
19878;DHT22;10101;52.204;9.910;2023-09-07T03:45:34;13.50;1.00
19878;DHT22;10101;52.204;9.910;2023-09-07T03:48:01;13.40;1.00
19878;DHT22;10101;52.204;9.910;2023-09-07T03:50:28;13.30;1.00
19878;DHT22;10101;52.204;9.910;2023-09-07T03:52:54;13.30;99.90
19878;DHT22;10101;52.204;9.910;2023-09-07T03:55:21;13.30;99.90
19878;DHT22;10101;52.204;9.910;2023-09-07T03:57:49;13.30;99.90
19878;DHT22;10101;52.204;9.910;2023-09-07T04:00:17;13.30;1.00
19878;DHT22;10101;52.204;9.910;2023-09-07T04:02:44;13.30;1.00
19878;DHT22;10101;52.204;9.910;2023-09-07T04:05:11;13.20;1.00
19878;DHT22;10101;52.204;9.910;2023-09-07T04:07:38;13.30;1.00
19878;DHT22;10101;52.204;9.910;2023-09-07T04:10:05;13.30;1.00
19878;DHT22;10101;52.204;9.910;2023-09-07T04:12:32;13.20;1.00
19878;DHT22;10101;52.204;9.910;2023-09-07T04:15:02;13.20;1.00
19878;DHT22;10101;52.204;9.910;2023-09-07T04:17:29;13.10;1.00
19878;DHT22;10101;52.204;9.910;2023-09-07T04:19:58;13.00;1.00
19878;DHT22;10101;52.204;9.910;2023-09-07T04:22:26;13.00;1.00
19878;DHT22;10101;52.204;9.910;2023-09-07T04:24:53;12.90;1.00
19878;DHT22;10101;52.204;9.910;2023-09-07T04:27:20;12.90;1.00
19878;DHT22;10101;52.204;9.910;2023-09-07T04:29:47;12.80;1.00
19878;DHT22;10101;52.204;9.910;2023-09-07T04:32:16;12.80;1.00
19878;DHT22;10101;52.204;9.910;2023-09-07T04:34:43;12.70;23.00
19878;DHT22;10101;52.204;9.910;2023-09-07T04:37:10;12.80;99.90
19878;DHT22;10101;52.204;9.910;2023-09-07T04:39:37;12.80;99.90
19878;DHT22;10101;52.204;9.910;2023-09-07T04:42:05;12.80;99.90
19878;DHT22;10101;52.204;9.910;2023-09-07T04:44:32;12.80;99.90
19878;DHT22;10101;52.204;9.910;2023-09-07T04:46:59;12.80;99.90
19878;DHT22;10101;52.204;9.910;2023-09-07T04:49:27;13.00;99.90
19878;DHT22;10101;52.204;9.910;2023-09-07T04:51:54;12.80;99.90
19878;DHT22;10101;52.204;9.910;2023-09-07T04:54:21;12.80;1.00
19878;DHT22;10101;52.204;9.910;2023-09-07T04:56:47;12.80;1.00
19878;DHT22;10101;52.204;9.910;2023-09-07T04:59:14;12.90;1.00
19878;DHT22;10101;52.204;9.910;2023-09-07T05:01:41;13.00;1.00
19878;DHT22;10101;52.204;9.910;2023-09-07T05:04:08;12.90;1.00
19878;DHT22;10101;52.204;9.910;2023-09-07T05:06:36;13.00;1.00
19878;DHT22;10101;52.204;9.910;2023-09-07T05:09:03;13.20;1.00
19878;DHT22;10101;52.204;9.910;2023-09-07T05:11:29;13.10;1.00
19878;DHT22;10101;52.204;9.910;2023-09-07T05:13:56;13.00;1.00
19878;DHT22;10101;52.204;9.910;2023-09-07T05:16:23;13.00;1.00
19878;DHT22;10101;52.204;9.910;2023-09-07T05:18:50;12.90;1.00
19878;DHT22;10101;52.204;9.910;2023-09-07T05:21:16;12.90;1.00
19878;DHT22;10101;52.204;9.910;2023-09-07T05:23:46;13.00;73.00
19878;DHT22;10101;52.204;9.910;2023-09-07T05:26:13;12.90;59.10
19878;DHT22;10101;52.204;9.910;2023-09-07T05:28:40;12.90;99.70
19878;DHT22;10101;52.204;9.910;2023-09-07T05:31:07;12.90;99.90
19878;DHT22;10101;52.204;9.910;2023-09-07T05:33:34;12.90;99.90
19878;DHT22;10101;52.204;9.910;2023-09-07T05:36:00;13.00;99.90
19878;DHT22;10101;52.204;9.910;2023-09-07T05:38:28;13.00;99.90
19878;DHT22;10101;52.204;9.910;2023-09-07T05:40:56;13.10;99.90
19878;DHT22;10101;52.204;9.910;2023-09-07T05:43:23;13.10;1.00
19878;DHT22;10101;52.204;9.910;2023-09-07T05:45:50;13.20;1.00
19878;DHT22;10101;52.204;9.910;2023-09-07T05:48:16;13.40;1.00
19878;DHT22;10101;52.204;9.910;2023-09-07T05:50:44;13.30;1.00
19878;DHT22;10101;52.204;9.910;2023-09-07T05:53:11;13.40;1.00
19878;DHT22;10101;52.204;9.910;2023-09-07T05:55:37;13.50;1.00
19878;DHT22;10101;52.204;9.910;2023-09-07T05:58:07;13.60;1.00
19878;DHT22;10101;52.204;9.910;2023-09-07T06:00:34;13.70;1.00
19878;DHT22;10101;52.204;9.910;2023-09-07T06:03:01;13.80;1.00
19878;DHT22;10101;52.204;9.910;2023-09-07T06:05:29;13.90;1.00
19878;DHT22;10101;52.204;9.910;2023-09-07T06:07:55;13.90;1.00
19878;DHT22;10101;52.204;9.910;2023-09-07T06:10:22;14.10;1.00
19878;DHT22;10101;52.204;9.910;2023-09-07T06:12:49;14.20;1.00
19878;DHT22;10101;52.204;9.910;2023-09-07T06:15:17;14.30;1.00
19878;DHT22;10101;52.204;9.910;2023-09-07T06:17:44;14.40;1.00
19878;DHT22;10101;52.204;9.910;2023-09-07T06:20:12;14.60;1.00
19878;DHT22;10101;52.204;9.910;2023-09-07T06:22:39;14.80;1.00
19878;DHT22;10101;52.204;9.910;2023-09-07T06:25:06;14.80;99.90
19878;DHT22;10101;52.204;9.910;2023-09-07T06:27:33;14.90;99.90
19878;DHT22;10101;52.204;9.910;2023-09-07T06:30:00;15.00;64.30
19878;DHT22;10101;52.204;9.910;2023-09-07T06:32:28;15.10;1.00
19878;DHT22;10101;52.204;9.910;2023-09-07T06:34:55;15.30;1.00
19878;DHT22;10101;52.204;9.910;2023-09-07T06:37:22;15.40;1.00
19878;DHT22;10101;52.204;9.910;2023-09-07T06:39:50;15.60;99.90
19878;DHT22;10101;52.204;9.910;2023-09-07T06:42:18;15.70;1.00
19878;DHT22;10101;52.204;9.910;2023-09-07T06:44:45;15.90;1.00
19878;DHT22;10101;52.204;9.910;2023-09-07T06:47:12;16.40;99.90
19878;DHT22;10101;52.204;9.910;2023-09-07T06:49:40;16.40;1.00
19878;DHT22;10101;52.204;9.910;2023-09-07T06:52:06;16.50;99.90
19878;DHT22;10101;52.204;9.910;2023-09-07T06:54:33;16.60;12.20
19878;DHT22;10101;52.204;9.910;2023-09-07T06:57:00;16.70;1.00
19878;DHT22;10101;52.204;9.910;2023-09-07T06:59:27;17.00;99.90
19878;DHT22;10101;52.204;9.910;2023-09-07T07:01:53;17.10;39.00
19878;DHT22;10101;52.204;9.910;2023-09-07T07:04:20;17.30;1.00
19878;DHT22;10101;52.204;9.910;2023-09-07T07:06:48;17.70;1.00
19878;DHT22;10101;52.204;9.910;2023-09-07T07:09:15;17.80;99.90
19878;DHT22;10101;52.204;9.910;2023-09-07T07:11:42;17.70;71.80
19878;DHT22;10101;52.204;9.910;2023-09-07T07:14:09;17.60;1.00
19878;DHT22;10101;52.204;9.910;2023-09-07T07:16:36;17.90;1.00
19878;DHT22;10101;52.204;9.910;2023-09-07T07:19:03;18.30;1.00
19878;DHT22;10101;52.204;9.910;2023-09-07T07:21:30;18.30;1.00
19878;DHT22;10101;52.204;9.910;2023-09-07T07:23:58;18.80;99.90
19878;DHT22;10101;52.204;9.910;2023-09-07T07:26:25;18.90;99.90
19878;DHT22;10101;52.204;9.910;2023-09-07T07:28:52;19.00;99.90
19878;DHT22;10101;52.204;9.910;2023-09-07T07:31:19;19.40;99.90
19878;DHT22;10101;52.204;9.910;2023-09-07T07:33:47;19.40;99.90
19878;DHT22;10101;52.204;9.910;2023-09-07T07:36:14;19.50;99.90
19878;DHT22;10101;52.204;9.910;2023-09-07T07:38:41;19.40;1.70
19878;DHT22;10101;52.204;9.910;2023-09-07T07:41:09;19.60;1.00
19878;DHT22;10101;52.204;9.910;2023-09-07T07:43:36;20.00;99.90
19878;DHT22;10101;52.204;9.910;2023-09-07T07:46:03;20.30;99.90
19878;DHT22;10101;52.204;9.910;2023-09-07T07:48:29;20.10;99.90
19878;DHT22;10101;52.204;9.910;2023-09-07T07:50:56;19.90;1.00
19878;DHT22;10101;52.204;9.910;2023-09-07T07:53:23;19.80;1.00
19878;DHT22;10101;52.204;9.910;2023-09-07T07:55:50;20.20;1.00
19878;DHT22;10101;52.204;9.910;2023-09-07T07:58:18;20.80;99.90
19878;DHT22;10101;52.204;9.910;2023-09-07T08:00:44;20.90;89.80
19878;DHT22;10101;52.204;9.910;2023-09-07T08:03:13;21.30;99.90
19878;DHT22;10101;52.204;9.910;2023-09-07T08:05:40;21.40;99.90
19878;DHT22;10101;52.204;9.910;2023-09-07T08:08:07;21.10;99.90
19878;DHT22;10101;52.204;9.910;2023-09-07T08:10:34;21.20;77.30
19878;DHT22;10101;52.204;9.910;2023-09-07T08:13:02;21.40;99.90
19878;DHT22;10101;52.204;9.910;2023-09-07T08:15:31;21.60;99.90
19878;DHT22;10101;52.204;9.910;2023-09-07T08:17:58;22.00;99.90
19878;DHT22;10101;52.204;9.910;2023-09-07T08:20:25;22.30;99.90
19878;DHT22;10101;52.204;9.910;2023-09-07T08:22:52;22.50;99.90
19878;DHT22;10101;52.204;9.910;2023-09-07T08:25:19;22.60;99.90
19878;DHT22;10101;52.204;9.910;2023-09-07T08:27:47;22.20;99.90
19878;DHT22;10101;52.204;9.910;2023-09-07T08:30:16;22.60;99.90
19878;DHT22;10101;52.204;9.910;2023-09-07T08:32:45;22.50;99.90
19878;DHT22;10101;52.204;9.910;2023-09-07T08:35:13;22.70;99.90
19878;DHT22;10101;52.204;9.910;2023-09-07T08:37:40;23.10;99.90
19878;DHT22;10101;52.204;9.910;2023-09-07T08:40:08;22.90;99.90
19878;DHT22;10101;52.204;9.910;2023-09-07T08:42:36;22.80;99.90
19878;DHT22;10101;52.204;9.910;2023-09-07T08:45:04;23.20;99.90
19878;DHT22;10101;52.204;9.910;2023-09-07T08:47:34;23.30;1.00
19878;DHT22;10101;52.204;9.910;2023-09-07T08:50:03;23.30;1.00
19878;DHT22;10101;52.204;9.910;2023-09-07T08:52:31;23.60;1.00
19878;DHT22;10101;52.204;9.910;2023-09-07T08:54:58;23.70;1.00
19878;DHT22;10101;52.204;9.910;2023-09-07T08:57:27;23.60;1.00
19878;DHT22;10101;52.204;9.910;2023-09-07T08:59:55;23.90;1.00
19878;DHT22;10101;52.204;9.910;2023-09-07T09:02:21;24.20;1.00
19878;DHT22;10101;52.204;9.910;2023-09-07T09:04:48;24.30;1.00
19878;DHT22;10101;52.204;9.910;2023-09-07T09:07:16;24.30;1.00
19878;DHT22;10101;52.204;9.910;2023-09-07T09:09:44;24.30;1.00
19878;DHT22;10101;52.204;9.910;2023-09-07T09:12:11;24.30;1.00
19878;DHT22;10101;52.204;9.910;2023-09-07T09:14:41;24.60;1.00
19878;DHT22;10101;52.204;9.910;2023-09-07T09:17:11;24.80;1.00
19878;DHT22;10101;52.204;9.910;2023-09-07T09:19:39;24.70;1.00
19878;DHT22;10101;52.204;9.910;2023-09-07T09:22:06;25.10;1.00
19878;DHT22;10101;52.204;9.910;2023-09-07T09:24:35;24.90;1.00
19878;DHT22;10101;52.204;9.910;2023-09-07T09:27:02;24.90;1.00
19878;DHT22;10101;52.204;9.910;2023-09-07T09:29:31;25.30;1.00
19878;DHT22;10101;52.204;9.910;2023-09-07T09:31:59;25.20;1.00
19878;DHT22;10101;52.204;9.910;2023-09-07T09:34:26;25.20;1.00
19878;DHT22;10101;52.204;9.910;2023-09-07T09:36:57;25.20;1.00
19878;DHT22;10101;52.204;9.910;2023-09-07T09:39:24;25.40;1.00
19878;DHT22;10101;52.204;9.910;2023-09-07T09:41:52;25.40;1.00
19878;DHT22;10101;52.204;9.910;2023-09-07T09:44:22;25.60;1.00
19878;DHT22;10101;52.204;9.910;2023-09-07T09:46:52;25.90;1.00
19878;DHT22;10101;52.204;9.910;2023-09-07T09:49:20;25.70;1.00
19878;DHT22;10101;52.204;9.910;2023-09-07T09:51:48;25.60;1.00
19878;DHT22;10101;52.204;9.910;2023-09-07T09:54:16;25.40;1.00
19878;DHT22;10101;52.204;9.910;2023-09-07T09:56:44;25.90;1.00
19878;DHT22;10101;52.204;9.910;2023-09-07T09:59:12;26.50;1.00
19878;DHT22;10101;52.204;9.910;2023-09-07T10:01:42;26.40;1.00
19878;DHT22;10101;52.204;9.910;2023-09-07T10:04:11;26.20;1.00
19878;DHT22;10101;52.204;9.910;2023-09-07T10:06:39;26.10;1.00
19878;DHT22;10101;52.204;9.910;2023-09-07T10:09:06;26.20;1.00
19878;DHT22;10101;52.204;9.910;2023-09-07T10:11:37;26.00;1.00
19878;DHT22;10101;52.204;9.910;2023-09-07T10:14:06;26.00;1.00
19878;DHT22;10101;52.204;9.910;2023-09-07T10:16:44;26.00;1.00
19878;DHT22;10101;52.204;9.910;2023-09-07T10:19:15;26.00;1.00
19878;DHT22;10101;52.204;9.910;2023-09-07T10:21:42;26.40;1.00
19878;DHT22;10101;52.204;9.910;2023-09-07T10:24:09;26.60;1.00
19878;DHT22;10101;52.204;9.910;2023-09-07T10:26:37;26.40;1.00
19878;DHT22;10101;52.204;9.910;2023-09-07T10:29:03;26.80;1.00
19878;DHT22;10101;52.204;9.910;2023-09-07T10:31:31;26.70;1.00
19878;DHT22;10101;52.204;9.910;2023-09-07T10:34:09;26.50;1.00
19878;DHT22;10101;52.204;9.910;2023-09-07T10:36:37;26.60;1.00
19878;DHT22;10101;52.204;9.910;2023-09-07T10:39:05;26.80;1.00
19878;DHT22;10101;52.204;9.910;2023-09-07T10:41:41;26.70;1.00
19878;DHT22;10101;52.204;9.910;2023-09-07T10:44:09;26.70;1.00
19878;DHT22;10101;52.204;9.910;2023-09-07T10:46:38;26.80;1.00
19878;DHT22;10101;52.204;9.910;2023-09-07T10:49:08;26.70;1.00
19878;DHT22;10101;52.204;9.910;2023-09-07T10:51:41;26.80;1.00
19878;DHT22;10101;52.204;9.910;2023-09-07T10:54:22;27.20;1.00
19878;DHT22;10101;52.204;9.910;2023-09-07T10:56:50;27.00;1.00
19878;DHT22;10101;52.204;9.910;2023-09-07T10:59:17;27.00;1.00
19878;DHT22;10101;52.204;9.910;2023-09-07T11:01:44;27.00;1.00
19878;DHT22;10101;52.204;9.910;2023-09-07T11:04:13;27.00;1.00
19878;DHT22;10101;52.204;9.910;2023-09-07T11:06:41;27.20;1.00
19878;DHT22;10101;52.204;9.910;2023-09-07T11:09:08;27.40;1.00
19878;DHT22;10101;52.204;9.910;2023-09-07T11:11:36;27.40;1.00
19878;DHT22;10101;52.204;9.910;2023-09-07T11:14:03;27.70;1.00
19878;DHT22;10101;52.204;9.910;2023-09-07T11:16:30;27.90;1.00
19878;DHT22;10101;52.204;9.910;2023-09-07T11:18:57;28.10;1.00
19878;DHT22;10101;52.204;9.910;2023-09-07T11:21:27;28.20;1.00
19878;DHT22;10101;52.204;9.910;2023-09-07T11:23:53;28.10;1.00
19878;DHT22;10101;52.204;9.910;2023-09-07T11:26:20;27.90;1.00
19878;DHT22;10101;52.204;9.910;2023-09-07T11:28:48;28.10;1.00
19878;DHT22;10101;52.204;9.910;2023-09-07T11:31:18;27.90;1.00
19878;DHT22;10101;52.204;9.910;2023-09-07T11:33:47;27.80;1.00
19878;DHT22;10101;52.204;9.910;2023-09-07T11:36:13;28.10;1.00
19878;DHT22;10101;52.204;9.910;2023-09-07T11:38:43;27.90;1.00
19878;DHT22;10101;52.204;9.910;2023-09-07T11:41:10;28.10;1.00
19878;DHT22;10101;52.204;9.910;2023-09-07T11:43:37;28.10;1.00
19878;DHT22;10101;52.204;9.910;2023-09-07T11:46:05;28.10;1.00
19878;DHT22;10101;52.204;9.910;2023-09-07T11:48:32;28.10;1.00
19878;DHT22;10101;52.204;9.910;2023-09-07T11:50:59;28.00;1.00
19878;DHT22;10101;52.204;9.910;2023-09-07T11:53:26;27.80;1.00
19878;DHT22;10101;52.204;9.910;2023-09-07T11:55:55;27.90;1.00
19878;DHT22;10101;52.204;9.910;2023-09-07T11:58:22;27.70;1.00
19878;DHT22;10101;52.204;9.910;2023-09-07T12:00:50;28.10;1.00
19878;DHT22;10101;52.204;9.910;2023-09-07T12:03:17;28.10;1.00
19878;DHT22;10101;52.204;9.910;2023-09-07T12:05:43;28.10;1.00
19878;DHT22;10101;52.204;9.910;2023-09-07T12:08:10;28.10;1.00
19878;DHT22;10101;52.204;9.910;2023-09-07T12:10:37;28.30;1.00
19878;DHT22;10101;52.204;9.910;2023-09-07T12:13:05;28.30;1.00
19878;DHT22;10101;52.204;9.910;2023-09-07T12:15:32;28.10;1.00
19878;DHT22;10101;52.204;9.910;2023-09-07T12:17:59;28.10;1.00
19878;DHT22;10101;52.204;9.910;2023-09-07T12:20:26;28.00;1.00
19878;DHT22;10101;52.204;9.910;2023-09-07T12:22:52;27.90;1.00
19878;DHT22;10101;52.204;9.910;2023-09-07T12:25:19;28.20;1.00
19878;DHT22;10101;52.204;9.910;2023-09-07T12:27:46;27.90;1.00
19878;DHT22;10101;52.204;9.910;2023-09-07T12:30:14;28.10;1.00
19878;DHT22;10101;52.204;9.910;2023-09-07T12:32:44;28.20;1.00
19878;DHT22;10101;52.204;9.910;2023-09-07T12:35:11;28.40;1.00
19878;DHT22;10101;52.204;9.910;2023-09-07T12:37:37;28.40;1.00
19878;DHT22;10101;52.204;9.910;2023-09-07T12:40:05;28.50;1.00
19878;DHT22;10101;52.204;9.910;2023-09-07T12:42:38;28.40;1.00
19878;DHT22;10101;52.204;9.910;2023-09-07T12:45:06;28.20;1.00
19878;DHT22;10101;52.204;9.910;2023-09-07T12:47:34;28.40;1.00
19878;DHT22;10101;52.204;9.910;2023-09-07T12:50:01;28.50;1.00
19878;DHT22;10101;52.204;9.910;2023-09-07T12:52:27;28.50;1.00
19878;DHT22;10101;52.204;9.910;2023-09-07T12:54:54;28.70;1.00
19878;DHT22;10101;52.204;9.910;2023-09-07T12:57:21;28.70;1.00
19878;DHT22;10101;52.204;9.910;2023-09-07T12:59:49;28.70;1.00
19878;DHT22;10101;52.204;9.910;2023-09-07T13:02:15;28.70;1.00
19878;DHT22;10101;52.204;9.910;2023-09-07T13:04:43;28.60;1.00
19878;DHT22;10101;52.204;9.910;2023-09-07T13:07:10;28.70;1.00
19878;DHT22;10101;52.204;9.910;2023-09-07T13:09:37;28.70;1.00
19878;DHT22;10101;52.204;9.910;2023-09-07T13:12:04;28.80;1.00
19878;DHT22;10101;52.204;9.910;2023-09-07T13:14:31;28.90;1.00
19878;DHT22;10101;52.204;9.910;2023-09-07T13:16:58;28.90;1.00
19878;DHT22;10101;52.204;9.910;2023-09-07T13:19:25;28.80;1.00
19878;DHT22;10101;52.204;9.910;2023-09-07T13:21:53;28.80;1.00
19878;DHT22;10101;52.204;9.910;2023-09-07T13:24:20;28.90;1.00
19878;DHT22;10101;52.204;9.910;2023-09-07T13:26:50;28.90;1.00
19878;DHT22;10101;52.204;9.910;2023-09-07T13:29:17;28.80;1.00
19878;DHT22;10101;52.204;9.910;2023-09-07T13:31:44;28.70;1.00
19878;DHT22;10101;52.204;9.910;2023-09-07T13:34:11;28.50;1.00
19878;DHT22;10101;52.204;9.910;2023-09-07T13:36:37;28.70;1.00
19878;DHT22;10101;52.204;9.910;2023-09-07T13:39:05;28.90;1.00
19878;DHT22;10101;52.204;9.910;2023-09-07T13:41:32;29.00;1.00
19878;DHT22;10101;52.204;9.910;2023-09-07T13:43:59;28.90;1.00
19878;DHT22;10101;52.204;9.910;2023-09-07T13:46:26;29.00;1.00
19878;DHT22;10101;52.204;9.910;2023-09-07T13:48:53;28.90;1.00
19878;DHT22;10101;52.204;9.910;2023-09-07T13:51:20;29.20;1.00
19878;DHT22;10101;52.204;9.910;2023-09-07T13:53:46;29.20;1.00
19878;DHT22;10101;52.204;9.910;2023-09-07T13:56:17;29.20;1.00
19878;DHT22;10101;52.204;9.910;2023-09-07T13:58:44;29.30;1.00
19878;DHT22;10101;52.204;9.910;2023-09-07T14:01:11;29.30;1.00
19878;DHT22;10101;52.204;9.910;2023-09-07T14:03:38;29.60;1.00
19878;DHT22;10101;52.204;9.910;2023-09-07T14:06:05;30.20;1.00
19878;DHT22;10101;52.204;9.910;2023-09-07T14:08:31;31.40;1.00
19878;DHT22;10101;52.204;9.910;2023-09-07T14:11:00;32.30;1.00
19878;DHT22;10101;52.204;9.910;2023-09-07T14:13:28;32.60;1.00
19878;DHT22;10101;52.204;9.910;2023-09-07T14:15:55;34.00;1.00
19878;DHT22;10101;52.204;9.910;2023-09-07T14:18:21;34.60;1.00
19878;DHT22;10101;52.204;9.910;2023-09-07T14:20:49;35.10;1.00
19878;DHT22;10101;52.204;9.910;2023-09-07T14:23:16;35.10;1.00
19878;DHT22;10101;52.204;9.910;2023-09-07T14:25:43;35.20;1.00
19878;DHT22;10101;52.204;9.910;2023-09-07T14:28:10;35.30;1.00
19878;DHT22;10101;52.204;9.910;2023-09-07T14:30:39;35.90;1.00
19878;DHT22;10101;52.204;9.910;2023-09-07T14:33:05;36.10;1.00
19878;DHT22;10101;52.204;9.910;2023-09-07T14:35:32;36.80;1.00
19878;DHT22;10101;52.204;9.910;2023-09-07T14:38:00;36.60;1.00
19878;DHT22;10101;52.204;9.910;2023-09-07T14:40:27;37.30;1.00
19878;DHT22;10101;52.204;9.910;2023-09-07T14:42:54;37.40;1.00
19878;DHT22;10101;52.204;9.910;2023-09-07T14:45:23;37.20;1.00
19878;DHT22;10101;52.204;9.910;2023-09-07T14:47:51;37.40;1.00
19878;DHT22;10101;52.204;9.910;2023-09-07T14:50:18;37.50;1.00
19878;DHT22;10101;52.204;9.910;2023-09-07T14:52:45;37.40;99.90
19878;DHT22;10101;52.204;9.910;2023-09-07T14:55:13;36.10;99.90
19878;DHT22;10101;52.204;9.910;2023-09-07T14:57:39;34.60;1.00
19878;DHT22;10101;52.204;9.910;2023-09-07T15:00:08;34.10;1.00
19878;DHT22;10101;52.204;9.910;2023-09-07T15:02:35;34.40;1.00
19878;DHT22;10101;52.204;9.910;2023-09-07T15:05:04;33.40;1.00
19878;DHT22;10101;52.204;9.910;2023-09-07T15:07:31;32.70;1.00
19878;DHT22;10101;52.204;9.910;2023-09-07T15:09:57;32.90;1.00
19878;DHT22;10101;52.204;9.910;2023-09-07T15:12:24;32.50;1.00
19878;DHT22;10101;52.204;9.910;2023-09-07T15:14:51;31.90;1.00
19878;DHT22;10101;52.204;9.910;2023-09-07T15:17:18;31.70;1.00
19878;DHT22;10101;52.204;9.910;2023-09-07T15:19:45;31.30;1.00
19878;DHT22;10101;52.204;9.910;2023-09-07T15:22:13;31.00;1.00
19878;DHT22;10101;52.204;9.910;2023-09-07T15:24:40;30.80;1.00
19878;DHT22;10101;52.204;9.910;2023-09-07T15:27:08;30.70;1.00
19878;DHT22;10101;52.204;9.910;2023-09-07T15:29:35;30.90;1.00
19878;DHT22;10101;52.204;9.910;2023-09-07T15:32:03;31.00;1.00
19878;DHT22;10101;52.204;9.910;2023-09-07T15:34:32;30.90;1.00
19878;DHT22;10101;52.204;9.910;2023-09-07T15:37:00;30.50;1.00
19878;DHT22;10101;52.204;9.910;2023-09-07T15:39:28;30.40;1.00
19878;DHT22;10101;52.204;9.910;2023-09-07T15:41:54;30.40;1.00
19878;DHT22;10101;52.204;9.910;2023-09-07T15:44:21;30.30;1.00